This is the latest recevied weather packets stored in our database for station/object KJ6HT. If no packets are shown the sender has not sent any weather packets the latest 1 day(s).
| Time | Temp. | Humidity | Pressure | Rain* | Wind** | Luminosity | Snow |
|---|---|---|---|---|---|---|---|
| 1778002224 | 16.67° C | 65% | 1013.7 hPa | 0 mm | 0.45 m/s, 284° | - | - |
| 1778001322 | 16.67° C | 66% | 1013.7 hPa | 0 mm | 1.34 m/s, 308° | - | - |
| 1778000423 | 16.11° C | 68% | 1013.6 hPa | 0 mm | 0.89 m/s, 255° | - | - |
| 1777999518 | 16.11° C | 72% | 1013.5 hPa | 0 mm | 0.45 m/s, 277° | - | - |
| 1777998613 | 15.56° C | 76% | 1013.5 hPa | 0 mm | 1.34 m/s, 252° | - | - |
| 1777997710 | 14.44° C | 78% | 1013.4 hPa | 0 mm | 1.34 m/s, 21° | - | - |
| 1777996808 | 14.44° C | 81% | 1013.3 hPa | 0 mm | 1.34 m/s, 225° | - | - |
| 1777995913 | 13.89° C | 82% | 1013.2 hPa | 0 mm | 0.89 m/s, 270° | - | - |
| 1777995007 | 13.89° C | 83% | 1013.1 hPa | 0 mm | 1.34 m/s, 195° | - | - |
| 1777994104 | 13.89° C | 86% | 1013 hPa | 0 mm | 1.34 m/s, 237° | - | - |
| 1777993203 | 13.33° C | 89% | 1012.9 hPa | 0 mm | 1.79 m/s, 281° | - | - |
| 1777992300 | 12.78° C | 89% | 1012.9 hPa | 0 mm | 1.34 m/s, 260° | - | - |
| 1777991510 | 12.22° C | 91% | 1012.8 hPa | 0 mm | 1.79 m/s, 220° | - | - |
| 1777990559 | 12.22° C | 92% | 1012.7 hPa | 0 mm | 1.34 m/s, 214° | - | - |
| 1777989678 | 12.22° C | 93% | 1012.6 hPa | 0 mm | 0 m/s | - | - |
| 1777988757 | 12.22° C | 93% | 1012.4 hPa | 0 mm | 0 m/s | - | - |
| 1777987856 | 12.22° C | 93% | 1012.5 hPa | 0 mm | 0 m/s | - | - |
| 1777986967 | 12.22° C | 93% | 1012.5 hPa | 0 mm | 0 m/s | - | - |
| 1777986056 | 11.67° C | 93% | 1012.3 hPa | 0 mm | 0 m/s | - | - |
| 1777985159 | 11.67° C | 93% | 1012.3 hPa | 0 mm | 0 m/s | - | - |
| 1777984256 | 11.67° C | 93% | 1012.3 hPa | 2.29 mm | 0 m/s | - | - |
| 1777983353 | 11.67° C | 93% | 1012.3 hPa | 2.79 mm | 0 m/s | - | - |
| 1777982466 | 12.22° C | 93% | 1012.3 hPa | 3.3 mm | 0 m/s | - | - |
| 1777981552 | 12.22° C | 93% | 1012.3 hPa | 3.3 mm | 0.45 m/s, 295° | - | - |
| 1777980655 | 12.22° C | 92% | 1012.5 hPa | 1.27 mm | 0.45 m/s, 260° | - | - |
* Rain latest hour (hover to see other rain measurements)
** Current wind speed in m/s (hover to see current wind gust speed)